createdAt,value
2023-03-11T00:00:17.025Z,14.05
2023-03-11T00:03:04.406Z,14.02
2023-03-11T00:05:33.732Z,13.99
2023-03-11T00:08:00.954Z,13.95
2023-03-11T00:10:30.470Z,13.93
2023-03-11T00:12:58.336Z,13.96
2023-03-11T00:15:25.900Z,13.91
2023-03-11T00:17:52.681Z,13.87
2023-03-11T00:20:28.204Z,13.85
2023-03-11T00:22:55.224Z,13.81
2023-03-11T00:25:23.940Z,13.74
2023-03-11T00:27:50.894Z,13.73
2023-03-11T00:30:18.983Z,13.78
2023-03-11T00:32:48.604Z,13.78
2023-03-11T00:35:17.599Z,13.73
2023-03-11T00:37:44.996Z,13.70
2023-03-11T00:40:17.115Z,13.65
2023-03-11T00:42:44.036Z,13.71
2023-03-11T00:45:11.804Z,13.63
2023-03-11T00:47:38.659Z,13.62
2023-03-11T00:50:06.708Z,13.62
2023-03-11T00:52:33.545Z,13.57
2023-03-11T00:55:00.662Z,13.62
2023-03-11T00:57:29.196Z,13.60
2023-03-11T00:59:56.384Z,13.60
2023-03-11T01:02:23.807Z,13.59
2023-03-11T01:04:55.690Z,13.56
2023-03-11T01:07:23.117Z,13.57
2023-03-11T01:09:50.196Z,13.47
2023-03-11T01:12:16.989Z,13.47
2023-03-11T01:14:44.173Z,13.43
2023-03-11T01:17:10.979Z,13.45
2023-03-11T01:19:38.055Z,13.42
2023-03-11T01:22:04.862Z,13.44
2023-03-11T01:24:31.893Z,13.44
2023-03-11T01:26:58.696Z,13.44
2023-03-11T01:29:25.761Z,13.43
2023-03-11T01:31:52.606Z,13.39
2023-03-11T01:34:19.713Z,13.36
2023-03-11T01:36:46.466Z,13.34
2023-03-11T01:39:13.567Z,13.31
2023-03-11T01:41:41.400Z,13.30
2023-03-11T01:44:13.611Z,13.25
2023-03-11T01:47:02.140Z,13.28
2023-03-11T01:49:29.277Z,13.25
2023-03-11T01:52:01.284Z,13.24
2023-03-11T01:54:30.364Z,13.21
2023-03-11T01:56:57.124Z,13.19
2023-03-11T01:59:29.393Z,13.20
2023-03-11T02:02:14.877Z,13.14
2023-03-11T02:04:42.089Z,13.09
2023-03-11T02:07:09.399Z,13.10
2023-03-11T02:09:36.531Z,13.06
2023-03-11T02:12:04.158Z,13.07
2023-03-11T02:14:31.290Z,13.02
2023-03-11T02:16:58.538Z,13.07
2023-03-11T02:19:31.678Z,13.02
2023-03-11T02:21:58.446Z,12.98
2023-03-11T02:24:34.391Z,13.00
2023-03-11T02:27:03.748Z,12.97
2023-03-11T02:29:30.842Z,12.90
2023-03-11T02:31:57.604Z,12.91
2023-03-11T02:34:26.629Z,12.88
2023-03-11T02:36:53.402Z,12.89
2023-03-11T02:39:37.172Z,12.81
2023-03-11T02:42:06.182Z,12.79
2023-03-11T02:44:33.459Z,12.77
2023-03-11T02:47:00.803Z,12.75
2023-03-11T02:49:27.973Z,12.65
2023-03-11T02:51:54.764Z,12.68
2023-03-11T02:54:21.825Z,12.68
2023-03-11T02:56:48.623Z,12.62
2023-03-11T02:59:15.680Z,12.60
2023-03-11T03:01:42.421Z,12.57
2023-03-11T03:04:09.574Z,12.55
2023-03-11T03:06:36.361Z,12.57
2023-03-11T03:09:03.834Z,12.52
2023-03-11T03:11:30.596Z,12.52
2023-03-11T03:13:57.677Z,12.50
2023-03-11T03:16:24.419Z,12.48
2023-03-11T03:18:52.454Z,12.44
2023-03-11T03:21:19.196Z,12.40
2023-03-11T03:23:46.282Z,12.37
2023-03-11T03:26:14.181Z,12.35
2023-03-11T03:28:41.243Z,12.35
2023-03-11T03:31:09.191Z,12.31
2023-03-11T03:33:36.280Z,12.26
2023-03-11T03:36:09.581Z,12.28
2023-03-11T03:38:36.732Z,12.23
2023-03-11T03:41:03.720Z,12.19
2023-03-11T03:43:30.839Z,12.18
2023-03-11T03:46:03.022Z,12.18
2023-03-11T03:48:30.309Z,12.13
2023-03-11T03:50:57.093Z,12.11
2023-03-11T03:53:24.153Z,12.07
2023-03-11T03:55:51.031Z,12.04
2023-03-11T03:58:18.100Z,12.03
2023-03-11T04:00:44.912Z,12.00
2023-03-11T04:03:12.074Z,12.00
2023-03-11T04:05:38.896Z,11.95
2023-03-11T04:08:05.993Z,11.93
2023-03-11T04:10:32.777Z,11.88
2023-03-11T04:12:59.924Z,11.84
2023-03-11T04:15:26.676Z,11.85
2023-03-11T04:17:53.811Z,11.78
2023-03-11T04:20:20.744Z,11.78
2023-03-11T04:22:47.861Z,11.73
2023-03-11T04:25:14.793Z,11.73
2023-03-11T04:27:45.978Z,11.69
2023-03-11T04:30:13.269Z,11.69
2023-03-11T04:32:40.507Z,11.63
2023-03-11T04:35:07.676Z,11.56
2023-03-11T04:37:34.778Z,11.48
2023-03-11T04:40:01.588Z,11.45
2023-03-11T04:42:28.694Z,11.48
2023-03-11T04:44:55.484Z,11.39
2023-03-11T04:47:22.533Z,11.33
2023-03-11T04:49:49.316Z,11.38
2023-03-11T04:52:16.397Z,11.39
2023-03-11T04:54:43.155Z,11.34
2023-03-11T04:57:10.270Z,11.33
2023-03-11T04:59:37.039Z,11.37
2023-03-11T05:02:04.187Z,11.33
2023-03-11T05:04:30.982Z,11.30
2023-03-11T05:06:58.116Z,11.35
2023-03-11T05:09:24.937Z,11.36
2023-03-11T05:11:52.043Z,11.35
2023-03-11T05:14:18.815Z,11.33
2023-03-11T05:16:45.919Z,11.28
2023-03-11T05:19:31.105Z,11.27
2023-03-11T05:21:58.567Z,11.23
2023-03-11T05:24:28.197Z,11.25
2023-03-11T05:26:55.487Z,11.17
2023-03-11T05:29:22.392Z,11.09
2023-03-11T05:31:49.551Z,11.13
2023-03-11T05:34:16.405Z,11.11
2023-03-11T05:36:43.656Z,11.11
2023-03-11T05:39:10.598Z,11.05
2023-03-11T05:41:37.650Z,11.00
2023-03-11T05:44:04.496Z,10.92
2023-03-11T05:46:32.380Z,10.90
2023-03-11T05:49:00.062Z,10.93
2023-03-11T05:51:27.254Z,10.95
2023-03-11T05:53:54.055Z,10.93
2023-03-11T05:56:21.964Z,10.92
2023-03-11T05:58:48.810Z,10.97
2023-03-11T06:01:17.298Z,10.97
2023-03-11T06:03:44.099Z,10.95
2023-03-11T06:06:12.393Z,10.93
2023-03-11T06:08:39.202Z,10.90
2023-03-11T06:11:07.936Z,10.85
2023-03-11T06:13:35.123Z,10.81
2023-03-11T06:16:02.363Z,10.82
2023-03-11T06:18:29.148Z,10.82
2023-03-11T06:20:59.813Z,10.80
2023-03-11T06:23:27.037Z,10.82
2023-03-11T06:25:58.173Z,10.76
2023-03-11T06:28:25.166Z,10.76
2023-03-11T06:30:52.280Z,10.73
2023-03-11T06:33:19.090Z,10.70
2023-03-11T06:35:56.761Z,10.72
2023-03-11T06:38:23.623Z,10.71
2023-03-11T06:40:50.655Z,10.70
2023-03-11T06:43:17.448Z,10.65
2023-03-11T06:45:45.294Z,10.63
2023-03-11T06:48:12.078Z,10.65
2023-03-11T06:50:39.201Z,10.62
2023-03-11T06:53:08.812Z,10.64
2023-03-11T06:55:36.149Z,10.63
2023-03-11T06:58:03.793Z,10.62
2023-03-11T07:00:31.247Z,10.52
2023-03-11T07:02:58.177Z,10.53
2023-03-11T07:05:25.320Z,10.56
2023-03-11T07:07:54.610Z,10.51
2023-03-11T07:10:21.745Z,10.48
2023-03-11T07:12:48.579Z,10.43
2023-03-11T07:15:15.660Z,10.46
2023-03-11T07:17:42.532Z,10.42
2023-03-11T07:20:10.423Z,10.35
2023-03-11T07:22:37.245Z,10.40
2023-03-11T07:25:04.647Z,10.39
2023-03-11T07:27:31.406Z,10.38
2023-03-11T07:29:58.512Z,10.35
2023-03-11T07:32:25.380Z,10.30
2023-03-11T07:34:52.577Z,10.29
2023-03-11T07:37:19.812Z,10.17
2023-03-11T07:39:46.928Z,10.21
2023-03-11T07:42:13.673Z,10.20
2023-03-11T07:44:40.766Z,10.12
2023-03-11T07:47:07.553Z,10.09
2023-03-11T07:49:34.623Z,10.13
2023-03-11T07:52:01.474Z,10.10
2023-03-11T07:54:28.531Z,10.06
2023-03-11T07:56:55.314Z,10.08
2023-03-11T07:59:22.490Z,10.07
2023-03-11T08:01:50.601Z,10.02
2023-03-11T08:04:18.909Z,10.00
2023-03-11T08:06:46.669Z,9.95
2023-03-11T08:09:13.783Z,9.93
2023-03-11T08:11:40.668Z,9.93
2023-03-11T08:14:07.852Z,9.93
2023-03-11T08:16:34.705Z,9.96
2023-03-11T08:19:02.025Z,9.95
2023-03-11T08:21:30.020Z,9.92
2023-03-11T08:23:58.507Z,9.95
2023-03-11T08:26:25.355Z,9.89
2023-03-11T08:28:52.494Z,9.81
2023-03-11T08:31:26.843Z,9.79
2023-03-11T08:33:59.350Z,9.79
2023-03-11T08:36:26.521Z,9.82
2023-03-11T08:38:53.661Z,9.82
2023-03-11T08:41:20.584Z,9.81
2023-03-11T08:43:47.737Z,9.82
2023-03-11T08:46:19.489Z,9.78
2023-03-11T08:48:46.625Z,9.75
2023-03-11T08:51:13.522Z,9.75
2023-03-11T08:53:40.742Z,9.70
2023-03-11T08:56:07.924Z,9.72
2023-03-11T08:58:35.132Z,9.71
2023-03-11T09:01:02.048Z,9.68
2023-03-11T09:03:32.121Z,9.71
2023-03-11T09:06:02.593Z,9.72
2023-03-11T09:08:29.962Z,9.61
2023-03-11T09:10:56.788Z,9.61
2023-03-11T09:13:23.993Z,9.60
2023-03-11T09:15:51.287Z,9.60
2023-03-11T09:18:18.488Z,9.55
2023-03-11T09:20:45.433Z,9.55
2023-03-11T09:23:14.045Z,9.53
2023-03-11T09:25:40.883Z,9.54
2023-03-11T09:28:07.992Z,9.49
2023-03-11T09:30:35.764Z,9.50
2023-03-11T09:33:03.002Z,9.37
2023-03-11T09:35:29.836Z,9.34
2023-03-11T09:37:56.989Z,9.23
2023-03-11T09:40:23.965Z,9.24
2023-03-11T09:43:09.789Z,9.28
2023-03-11T09:45:38.882Z,9.32
2023-03-11T09:48:25.314Z,9.27
2023-03-11T09:51:08.465Z,9.29
2023-03-11T09:53:40.771Z,9.21
2023-03-11T09:56:18.212Z,9.23
2023-03-11T09:58:47.573Z,9.21
2023-03-11T10:01:22.493Z,9.10
2023-03-11T10:03:50.604Z,9.14
2023-03-11T10:06:21.746Z,9.23
2023-03-11T10:09:01.087Z,9.14
2023-03-11T10:11:36.966Z,9.13
2023-03-11T10:14:25.926Z,9.07
2023-03-11T10:17:23.154Z,9.05
2023-03-11T10:19:53.528Z,9.04
2023-03-11T10:23:05.526Z,8.95
2023-03-11T10:26:20.351Z,8.94
2023-03-11T10:28:51.247Z,8.95
2023-03-11T10:31:38.112Z,8.85
2023-03-11T10:34:14.002Z,8.85
2023-03-11T10:36:55.997Z,8.83
2023-03-11T10:39:23.003Z,8.77
2023-03-11T10:41:52.835Z,8.87
2023-03-11T10:44:23.977Z,8.86
2023-03-11T10:46:51.111Z,8.88
2023-03-11T10:49:18.359Z,8.81
2023-03-11T10:51:50.515Z,8.84
2023-03-11T10:54:31.740Z,8.74
2023-03-11T10:57:06.949Z,8.75
2023-03-11T10:59:34.795Z,8.70
2023-03-11T11:02:03.676Z,8.69
2023-03-11T11:04:40.748Z,8.65
2023-03-11T11:07:41.188Z,8.65
2023-03-11T11:10:20.529Z,8.59
2023-03-11T11:13:12.691Z,8.62
2023-03-11T11:16:03.057Z,8.68
2023-03-11T11:18:30.168Z,8.63
2023-03-11T11:21:01.243Z,8.60
2023-03-11T11:23:48.626Z,8.54
2023-03-11T11:26:22.378Z,8.82
2023-03-11T11:29:15.841Z,9.05
2023-03-11T11:31:46.208Z,9.23
2023-03-11T11:34:33.046Z,9.17
2023-03-11T11:37:01.904Z,9.09
2023-03-11T11:39:30.652Z,9.02
2023-03-11T11:41:57.520Z,8.99
2023-03-11T11:44:31.471Z,8.98
2023-03-11T11:47:06.331Z,8.97
2023-03-11T11:49:33.548Z,8.89
2023-03-11T11:52:14.029Z,8.86
2023-03-11T11:54:46.337Z,8.69
2023-03-11T11:57:14.701Z,8.62
2023-03-11T11:59:42.299Z,8.60
2023-03-11T12:02:52.984Z,8.61
2023-03-11T12:05:27.465Z,8.61
2023-03-11T12:07:58.117Z,8.74
2023-03-11T12:10:39.832Z,8.94
2023-03-11T12:13:21.888Z,9.12
2023-03-11T12:16:02.530Z,8.99
2023-03-11T12:18:40.534Z,8.85
2023-03-11T12:21:27.429Z,8.75
2023-03-11T12:24:25.175Z,8.66
2023-03-11T12:26:52.552Z,8.72
2023-03-11T12:29:29.570Z,8.69
2023-03-11T12:31:56.693Z,8.64
2023-03-11T12:34:24.924Z,8.66
2023-03-11T12:36:52.446Z,8.62
2023-03-11T12:39:25.431Z,8.58
2023-03-11T12:42:11.185Z,8.59
2023-03-11T12:44:38.707Z,8.53
2023-03-11T12:47:09.083Z,8.57
2023-03-11T12:49:46.838Z,8.62
2023-03-11T12:52:13.912Z,8.56
2023-03-11T12:54:40.747Z,8.57
2023-03-11T12:57:16.938Z,8.67
2023-03-11T12:59:49.676Z,8.61
2023-03-11T13:02:28.880Z,8.41
2023-03-11T13:04:59.670Z,8.41
2023-03-11T13:07:51.093Z,8.49
2023-03-11T13:10:40.714Z,8.56
2023-03-11T13:13:32.509Z,8.47
2023-03-11T13:16:19.391Z,8.41
2023-03-11T13:18:51.658Z,8.43
2023-03-11T13:21:27.562Z,8.38
2023-03-11T13:24:16.203Z,8.40
2023-03-11T13:27:05.008Z,8.42
2023-03-11T13:30:17.118Z,8.45
2023-03-11T13:32:53.028Z,8.62
2023-03-11T13:35:34.100Z,8.58
2023-03-11T13:38:13.311Z,8.49
2023-03-11T13:40:41.914Z,8.47
2023-03-11T13:43:25.477Z,8.48
2023-03-11T13:46:00.733Z,8.45
2023-03-11T13:48:37.659Z,8.48
2023-03-11T13:51:12.249Z,8.45
2023-03-11T13:53:43.217Z,8.48
2023-03-11T13:56:49.190Z,8.47
2023-03-11T13:59:17.841Z,8.42
2023-03-11T14:01:55.110Z,8.39
2023-03-11T14:04:30.263Z,8.32
2023-03-11T14:06:58.198Z,8.35
2023-03-11T14:09:26.558Z,8.34
2023-03-11T14:11:56.877Z,8.37
2023-03-11T14:15:01.186Z,8.34
2023-03-11T14:17:28.269Z,8.23
2023-03-11T14:20:15.297Z,8.28
2023-03-11T14:22:52.509Z,8.30
2023-03-11T14:25:27.505Z,8.31
2023-03-11T14:27:58.519Z,8.35
2023-03-11T14:30:30.295Z,8.38
2023-03-11T14:33:00.572Z,8.35
2023-03-11T14:35:27.454Z,8.39
2023-03-11T14:37:54.619Z,8.38
2023-03-11T14:40:28.763Z,8.39
2023-03-11T14:42:57.722Z,8.43
2023-03-11T14:45:32.930Z,8.36
2023-03-11T14:48:04.702Z,8.42
2023-03-11T14:50:35.079Z,8.41
2023-03-11T14:53:14.280Z,8.42
2023-03-11T14:55:51.118Z,8.36
2023-03-11T14:58:34.677Z,8.26
2023-03-11T15:01:19.765Z,8.25
2023-03-11T15:03:50.165Z,8.20
2023-03-11T15:06:18.305Z,8.16
2023-03-11T15:08:50.885Z,8.12
2023-03-11T15:11:20.012Z,8.10
2023-03-11T15:13:50.541Z,8.18
2023-03-11T15:16:43.903Z,8.22
2023-03-11T15:19:29.536Z,8.13
2023-03-11T15:21:59.913Z,8.16
2023-03-11T15:24:28.769Z,8.19
2023-03-11T15:26:56.516Z,8.17
2023-03-11T15:29:23.744Z,8.16
2023-03-11T15:31:50.624Z,8.13
2023-03-11T15:34:17.697Z,8.14
2023-03-11T15:37:20.474Z,8.11
2023-03-11T15:39:51.134Z,8.13
2023-03-11T15:42:23.062Z,8.14
2023-03-11T15:45:24.242Z,8.23
2023-03-11T15:47:51.012Z,8.18
2023-03-11T15:50:24.778Z,8.07
2023-03-11T15:52:56.508Z,8.12
2023-03-11T15:55:24.420Z,8.06
2023-03-11T15:57:52.679Z,8.07
2023-03-11T16:00:22.319Z,8.05
2023-03-11T16:02:50.103Z,8.09
2023-03-11T16:05:22.028Z,8.10
2023-03-11T16:07:48.951Z,8.05
2023-03-11T16:10:18.074Z,8.03
2023-03-11T16:12:44.954Z,8.06
2023-03-11T16:15:28.643Z,7.95
2023-03-11T16:17:57.494Z,8.00
2023-03-11T16:20:25.663Z,7.92
2023-03-11T16:22:53.684Z,7.85
2023-03-11T16:25:26.707Z,7.76
2023-03-11T16:27:54.021Z,7.82
2023-03-11T16:30:21.358Z,7.81
2023-03-11T16:32:48.206Z,7.78
2023-03-11T16:35:15.420Z,7.79
2023-03-11T16:37:43.358Z,7.77
2023-03-11T16:40:15.701Z,7.83
2023-03-11T16:42:43.671Z,7.86
2023-03-11T16:45:12.408Z,7.88
2023-03-11T16:47:39.231Z,7.85
2023-03-11T16:50:07.005Z,7.86
2023-03-11T16:52:34.169Z,7.84
2023-03-11T16:55:01.403Z,7.85
2023-03-11T16:57:28.259Z,7.84
2023-03-11T16:59:55.442Z,7.75
2023-03-11T17:02:24.512Z,7.73
2023-03-11T17:04:52.049Z,7.76
2023-03-11T17:07:18.855Z,7.74
2023-03-11T17:09:45.958Z,7.73
2023-03-11T17:12:15.729Z,7.72
2023-03-11T17:14:42.861Z,7.71
2023-03-11T17:17:09.757Z,7.75
2023-03-11T17:19:36.869Z,7.73
2023-03-11T17:22:03.967Z,7.69
2023-03-11T17:24:31.166Z,7.73
2023-03-11T17:26:58.397Z,7.73
2023-03-11T17:29:25.602Z,7.71
2023-03-11T17:31:52.464Z,7.80
2023-03-11T17:34:19.833Z,7.75
2023-03-11T17:36:46.625Z,7.75
2023-03-11T17:39:13.714Z,7.68
2023-03-11T17:41:40.469Z,7.73
2023-03-11T17:44:07.658Z,7.62
2023-03-11T17:46:36.328Z,7.57
2023-03-11T17:49:03.535Z,7.55
2023-03-11T17:51:30.532Z,7.60
2023-03-11T17:53:57.699Z,7.60
2023-03-11T17:56:24.571Z,7.63
2023-03-11T17:58:52.056Z,7.63
2023-03-11T18:01:20.912Z,7.60
2023-03-11T18:03:48.219Z,7.61
2023-03-11T18:06:15.140Z,7.59
2023-03-11T18:08:42.268Z,7.59
2023-03-11T18:11:11.772Z,7.55
2023-03-11T18:13:39.022Z,7.57
2023-03-11T18:16:07.981Z,7.52
2023-03-11T18:18:35.812Z,7.55
2023-03-11T18:21:04.443Z,7.53
2023-03-11T18:23:33.214Z,7.53
2023-03-11T18:26:01.106Z,7.48
2023-03-11T18:28:28.331Z,7.55
2023-03-11T18:30:55.352Z,7.53
2023-03-11T18:33:23.776Z,7.52
2023-03-11T18:35:50.946Z,7.48
2023-03-11T18:38:18.112Z,7.50
2023-03-11T18:40:45.002Z,7.52
2023-03-11T18:43:14.223Z,7.50
2023-03-11T18:45:41.101Z,7.54
2023-03-11T18:48:08.246Z,7.47
2023-03-11T18:50:35.049Z,7.50
2023-03-11T18:53:02.199Z,7.47
2023-03-11T18:55:29.051Z,7.52
2023-03-11T18:57:56.139Z,7.52
2023-03-11T19:00:23.758Z,7.51
2023-03-11T19:02:54.864Z,7.53
2023-03-11T19:05:21.926Z,7.47
2023-03-11T19:07:48.992Z,7.52
2023-03-11T19:10:18.030Z,7.52
2023-03-11T19:12:45.607Z,7.52
2023-03-11T19:15:12.699Z,7.53
2023-03-11T19:17:40.050Z,7.43
2023-03-11T19:20:08.773Z,7.50
2023-03-11T19:22:36.644Z,7.49
2023-03-11T19:25:04.571Z,7.49
2023-03-11T19:27:31.856Z,7.48
2023-03-11T19:29:58.684Z,7.49
2023-03-11T19:32:25.815Z,7.51
2023-03-11T19:34:52.658Z,7.48
2023-03-11T19:37:19.769Z,7.40
2023-03-11T19:39:46.567Z,7.44
2023-03-11T19:42:14.095Z,7.45
2023-03-11T19:44:40.923Z,7.45
2023-03-11T19:47:08.101Z,7.43
2023-03-11T19:49:34.873Z,7.46
2023-03-11T19:52:02.407Z,7.41
2023-03-11T19:54:29.310Z,7.39
2023-03-11T19:56:56.377Z,7.39
2023-03-11T19:59:23.243Z,7.40
2023-03-11T20:01:50.354Z,7.40
2023-03-11T20:04:17.250Z,7.33
2023-03-11T20:06:44.804Z,7.38
2023-03-11T20:09:12.645Z,7.32
2023-03-11T20:11:40.398Z,7.30
2023-03-11T20:14:07.535Z,7.33
2023-03-11T20:16:34.691Z,7.26
2023-03-11T20:19:01.668Z,7.29
2023-03-11T20:21:28.796Z,7.29
2023-03-11T20:23:55.926Z,7.27
2023-03-11T20:26:23.550Z,7.27
2023-03-11T20:28:50.396Z,7.27
2023-03-11T20:31:22.407Z,7.23
2023-03-11T20:33:49.771Z,7.24
2023-03-11T20:36:20.477Z,7.23
2023-03-11T20:38:51.580Z,7.22
2023-03-11T20:41:19.251Z,7.21
2023-03-11T20:43:46.136Z,7.18
2023-03-11T20:46:13.415Z,7.17
2023-03-11T20:48:40.373Z,7.16
2023-03-11T20:51:10.353Z,7.13
2023-03-11T20:53:37.366Z,7.13
2023-03-11T20:56:15.519Z,7.13
2023-03-11T20:58:43.221Z,7.11
2023-03-11T21:01:17.831Z,7.11
2023-03-11T21:03:45.006Z,7.09
2023-03-11T21:06:23.206Z,7.08
2023-03-11T21:08:50.242Z,7.07
2023-03-11T21:11:17.509Z,7.07
2023-03-11T21:13:44.529Z,7.07
2023-03-11T21:16:11.794Z,7.07
2023-03-11T21:18:38.836Z,7.06
2023-03-11T21:21:08.497Z,7.22
2023-03-11T21:23:35.909Z,7.45
2023-03-11T21:26:03.469Z,7.51
2023-03-11T21:28:31.858Z,7.49
2023-03-11T21:31:04.527Z,7.36
2023-03-11T21:33:31.755Z,7.36
2023-03-11T21:35:59.625Z,7.30
2023-03-11T21:38:26.862Z,7.29
2023-03-11T21:40:54.218Z,7.31
2023-03-11T21:43:21.125Z,7.28
2023-03-11T21:45:48.368Z,7.28
2023-03-11T21:48:15.220Z,7.28
2023-03-11T21:50:42.401Z,7.25
2023-03-11T21:53:09.289Z,7.23
2023-03-11T21:55:36.492Z,7.17
2023-03-11T21:58:03.422Z,7.17
2023-03-11T22:00:30.511Z,7.16
2023-03-11T22:02:57.576Z,7.16
2023-03-11T22:05:25.354Z,7.15
2023-03-11T22:07:52.389Z,7.12
2023-03-11T22:10:19.708Z,7.11
2023-03-11T22:12:46.589Z,7.10
2023-03-11T22:15:13.795Z,7.10
2023-03-11T22:17:40.662Z,7.10
2023-03-11T22:20:10.016Z,7.06
2023-03-11T22:22:36.909Z,7.09
2023-03-11T22:25:04.529Z,7.08
2023-03-11T22:27:31.646Z,7.07
2023-03-11T22:29:58.738Z,7.04
2023-03-11T22:32:25.583Z,7.04
2023-03-11T22:34:52.668Z,7.04
2023-03-11T22:37:19.399Z,7.04
2023-03-11T22:39:46.444Z,7.04
2023-03-11T22:42:13.237Z,7.02
2023-03-11T22:44:40.298Z,7.02
2023-03-11T22:47:07.069Z,7.02
2023-03-11T22:49:34.118Z,6.94
2023-03-11T22:52:00.898Z,6.98
2023-03-11T22:54:28.111Z,6.99
2023-03-11T22:56:54.919Z,6.98
2023-03-11T22:59:21.969Z,6.97
2023-03-11T23:01:48.829Z,6.93
2023-03-11T23:04:15.942Z,6.95
2023-03-11T23:06:42.726Z,6.97
2023-03-11T23:09:09.763Z,6.92
2023-03-11T23:11:36.498Z,6.91
2023-03-11T23:14:03.510Z,6.92
2023-03-11T23:16:31.296Z,6.92
2023-03-11T23:18:58.398Z,6.92
2023-03-11T23:21:27.330Z,6.91
2023-03-11T23:23:54.519Z,6.91
2023-03-11T23:26:21.470Z,6.90
2023-03-11T23:28:51.027Z,6.87
2023-03-11T23:31:18.203Z,6.88
2023-03-11T23:33:45.558Z,6.86
2023-03-11T23:36:14.707Z,6.85
2023-03-11T23:38:41.791Z,6.85
2023-03-11T23:41:10.486Z,6.84
2023-03-11T23:43:38.769Z,6.82
2023-03-11T23:46:05.912Z,6.80
2023-03-11T23:48:32.990Z,6.79
2023-03-11T23:50:59.730Z,6.76
2023-03-11T23:53:27.142Z,6.75
2023-03-11T23:55:54.154Z,6.73
2023-03-11T23:58:21.305Z,6.72
